AEE121 LGKV-LGTS
Flight info
| Callsign | AEE121 |
|---|---|
| Flight time | 0h 28m |
| Altitude | 16000 |
| Route | ASKOS1L ASKOS M603 ARNAS ARNAS3F |
| Aircraft | A320/M-SDE3FGHIRWY/LB1 |
Departure
| Time | 2026-05-06 12:41 |
|---|---|
| Airport | Kavala Alexander the Great International Airport (LGKV) |
Arrival
| Time | 2026-05-06 13:09 |
|---|---|
| Airport | Thessaloniki Macedonia International Airport (LGTS) |
| Time | Latitude | Longitude | Altitude | Speed | Heading |
|---|---|---|---|---|---|
| 2026-05-06 12:03 | 40.92150 | 24.62432 | 20 ft | 0 kts | 324° |
| 2026-05-06 12:33 | 40.92145 | 24.62436 | 20 ft | 2 kts | 325° |
| 2026-05-06 12:33 | 40.92129 | 24.62451 | 21 ft | 3 kts | 328° |
| 2026-05-06 12:33 | 40.92111 | 24.62464 | 20 ft | 3 kts | 334° |
| 2026-05-06 12:34 | 40.92093 | 24.62474 | 19 ft | 3 kts | 348° |
| 2026-05-06 12:34 | 40.92074 | 24.62476 | 22 ft | 3 kts | 23° |
| 2026-05-06 12:34 | 40.92065 | 24.62469 | 22 ft | 0 kts | 56° |
| 2026-05-06 12:34 | 40.92065 | 24.62468 | 22 ft | 0 kts | 56° |
| 2026-05-06 12:37 | 40.92066 | 24.62469 | 22 ft | 1 kts | 56° |
| 2026-05-06 12:37 | 40.92091 | 24.62519 | 19 ft | 10 kts | 56° |
| 2026-05-06 12:38 | 40.92136 | 24.62606 | 19 ft | 13 kts | 56° |
| 2026-05-06 12:38 | 40.92096 | 24.62698 | 20 ft | 15 kts | 145° |
| 2026-05-06 12:38 | 40.92074 | 24.62812 | 20 ft | 16 kts | 56° |
| 2026-05-06 12:38 | 40.92142 | 24.62947 | 19 ft | 19 kts | 56° |
| 2026-05-06 12:39 | 40.92198 | 24.63051 | 19 ft | 22 kts | 54° |
| 2026-05-06 12:39 | 40.92302 | 24.63255 | 20 ft | 15 kts | 74° |
| 2026-05-06 12:39 | 40.92237 | 24.63355 | 20 ft | 17 kts | 145° |
| 2026-05-06 12:39 | 40.92155 | 24.63402 | 19 ft | 12 kts | 196° |
| 2026-05-06 12:40 | 40.92134 | 24.63375 | 19 ft | 0 kts | 237° |
| 2026-05-06 12:40 | 40.92130 | 24.63366 | 19 ft | 3 kts | 237° |
| 2026-05-06 12:40 | 40.92128 | 24.63362 | 19 ft | 0 kts | 237° |
| 2026-05-06 12:40 | 40.92108 | 24.63322 | 19 ft | 23 kts | 236° |
| 2026-05-06 12:41 | 40.91821 | 24.62767 | 23 ft | 120 kts | 236° |
| 2026-05-06 12:41 | 40.91264 | 24.61701 | 256 ft | 169 kts | 236° |
| 2026-05-06 12:41 | 40.90448 | 24.60475 | 1034 ft | 187 kts | 218° |
| 2026-05-06 12:41 | 40.89395 | 24.59482 | 2188 ft | 182 kts | 217° |
| 2026-05-06 12:42 | 40.88449 | 24.58334 | 3009 ft | 190 kts | 228° |
| 2026-05-06 12:42 | 40.87509 | 24.57063 | 3875 ft | 195 kts | 223° |
| 2026-05-06 12:42 | 40.86451 | 24.55764 | 4297 ft | 220 kts | 222° |
| 2026-05-06 12:42 | 40.85387 | 24.54476 | 4759 ft | 242 kts | 222° |
| 2026-05-06 12:43 | 40.84164 | 24.52983 | 5297 ft | 264 kts | 223° |
| 2026-05-06 12:43 | 40.82802 | 24.51290 | 6193 ft | 272 kts | 223° |
| 2026-05-06 12:43 | 40.81416 | 24.49546 | 7102 ft | 278 kts | 224° |
| 2026-05-06 12:43 | 40.80006 | 24.47755 | 8011 ft | 284 kts | 226° |
| 2026-05-06 12:44 | 40.78576 | 24.45928 | 8961 ft | 289 kts | 226° |
| 2026-05-06 12:44 | 40.77270 | 24.44253 | 9814 ft | 292 kts | 226° |
| 2026-05-06 12:44 | 40.76177 | 24.42849 | 10308 ft | 303 kts | 226° |
| 2026-05-06 12:44 | 40.74611 | 24.40834 | 10659 ft | 326 kts | 226° |
| 2026-05-06 12:45 | 40.72974 | 24.38731 | 11284 ft | 335 kts | 226° |
| 2026-05-06 12:45 | 40.71289 | 24.36574 | 12113 ft | 338 kts | 226° |
| 2026-05-06 12:45 | 40.67872 | 24.32214 | 13744 ft | 346 kts | 226° |
| 2026-05-06 12:46 | 40.66148 | 24.29991 | 14456 ft | 349 kts | 229° |
| 2026-05-06 12:46 | 40.64666 | 24.27456 | 15157 ft | 350 kts | 241° |
| 2026-05-06 12:46 | 40.63617 | 24.24572 | 15787 ft | 351 kts | 253° |
| 2026-05-06 12:46 | 40.63024 | 24.21460 | 16005 ft | 349 kts | 262° |
| 2026-05-06 12:47 | 40.62604 | 24.18298 | 16063 ft | 352 kts | 262° |
| 2026-05-06 12:47 | 40.62181 | 24.15117 | 16067 ft | 353 kts | 262° |
| 2026-05-06 12:47 | 40.61759 | 24.11971 | 16064 ft | 354 kts | 262° |
| 2026-05-06 12:47 | 40.61326 | 24.08784 | 16065 ft | 354 kts | 262° |
| 2026-05-06 12:48 | 40.60884 | 24.05573 | 16056 ft | 354 kts | 262° |
| 2026-05-06 12:48 | 40.60449 | 24.02421 | 16063 ft | 354 kts | 262° |
| 2026-05-06 12:48 | 40.60009 | 23.99237 | 16059 ft | 354 kts | 262° |
| 2026-05-06 12:48 | 40.59567 | 23.96049 | 16063 ft | 354 kts | 262° |
| 2026-05-06 12:49 | 40.59125 | 23.92874 | 16065 ft | 354 kts | 262° |
| 2026-05-06 12:49 | 40.58680 | 23.89688 | 16066 ft | 354 kts | 262° |
| 2026-05-06 12:49 | 40.58234 | 23.86504 | 16066 ft | 354 kts | 262° |
| 2026-05-06 12:49 | 40.57789 | 23.83325 | 16067 ft | 354 kts | 262° |
| 2026-05-06 12:50 | 40.57342 | 23.80134 | 16077 ft | 354 kts | 262° |
| 2026-05-06 12:50 | 40.56896 | 23.76951 | 16079 ft | 354 kts | 262° |
| 2026-05-06 12:50 | 40.56449 | 23.73760 | 16064 ft | 354 kts | 262° |
| 2026-05-06 12:50 | 40.56001 | 23.70575 | 16067 ft | 354 kts | 262° |
| 2026-05-06 12:51 | 40.55553 | 23.67391 | 16076 ft | 354 kts | 262° |
| 2026-05-06 12:51 | 40.55101 | 23.64197 | 16078 ft | 354 kts | 262° |
| 2026-05-06 12:51 | 40.54662 | 23.61095 | 16070 ft | 354 kts | 262° |
| 2026-05-06 12:51 | 40.54198 | 23.57827 | 16079 ft | 354 kts | 262° |
| 2026-05-06 12:52 | 40.53745 | 23.54641 | 16070 ft | 354 kts | 262° |
| 2026-05-06 12:52 | 40.53316 | 23.51633 | 16077 ft | 353 kts | 262° |
| 2026-05-06 12:52 | 40.52856 | 23.48416 | 16076 ft | 353 kts | 262° |
| 2026-05-06 12:52 | 40.52407 | 23.45281 | 16064 ft | 353 kts | 262° |
| 2026-05-06 12:53 | 40.51953 | 23.42110 | 16073 ft | 353 kts | 262° |
| 2026-05-06 12:53 | 40.51499 | 23.38939 | 16063 ft | 353 kts | 262° |
| 2026-05-06 12:53 | 40.51045 | 23.35767 | 16069 ft | 353 kts | 262° |
| 2026-05-06 12:53 | 40.50591 | 23.32606 | 16069 ft | 353 kts | 262° |
| 2026-05-06 12:54 | 40.50134 | 23.29442 | 16062 ft | 350 kts | 262° |
| 2026-05-06 12:54 | 40.49677 | 23.26317 | 16053 ft | 347 kts | 262° |
| 2026-05-06 12:54 | 40.49368 | 23.24214 | 16052 ft | 346 kts | 262° |
| 2026-05-06 12:54 | 40.49084 | 23.22285 | 16045 ft | 345 kts | 262° |
| 2026-05-06 12:55 | 40.48628 | 23.19185 | 16052 ft | 346 kts | 262° |
| 2026-05-06 12:55 | 40.48172 | 23.16080 | 16053 ft | 344 kts | 262° |
| 2026-05-06 12:55 | 40.47726 | 23.13057 | 15828 ft | 329 kts | 262° |
| 2026-05-06 12:55 | 40.47324 | 23.10339 | 15449 ft | 313 kts | 262° |
| 2026-05-06 12:56 | 40.46924 | 23.07650 | 15324 ft | 291 kts | 262° |
| 2026-05-06 12:56 | 40.46548 | 23.05108 | 14975 ft | 280 kts | 262° |
| 2026-05-06 12:56 | 40.46188 | 23.02613 | 14467 ft | 276 kts | 264° |
| 2026-05-06 12:56 | 40.46293 | 23.00170 | 13945 ft | 266 kts | 292° |
| 2026-05-06 12:57 | 40.47309 | 22.98212 | 13364 ft | 261 kts | 321° |
| 2026-05-06 12:57 | 40.48892 | 22.97065 | 12706 ft | 262 kts | 334° |
| 2026-05-06 12:57 | 40.50546 | 22.96038 | 12083 ft | 263 kts | 333° |
| 2026-05-06 12:57 | 40.52195 | 22.94988 | 11493 ft | 263 kts | 332° |
| 2026-05-06 12:58 | 40.53820 | 22.93943 | 10926 ft | 262 kts | 332° |
| 2026-05-06 12:58 | 40.55457 | 22.92889 | 10375 ft | 262 kts | 331° |
| 2026-05-06 12:58 | 40.57087 | 22.91836 | 9814 ft | 261 kts | 331° |
| 2026-05-06 12:58 | 40.58719 | 22.90780 | 9228 ft | 261 kts | 332° |
| 2026-05-06 12:59 | 40.60348 | 22.89728 | 8669 ft | 260 kts | 331° |
| 2026-05-06 12:59 | 40.61967 | 22.88686 | 8100 ft | 259 kts | 332° |
| 2026-05-06 12:59 | 40.63594 | 22.87642 | 7654 ft | 259 kts | 332° |
| 2026-05-06 12:59 | 40.65213 | 22.86603 | 7252 ft | 258 kts | 332° |
| 2026-05-06 13:00 | 40.66824 | 22.85566 | 6910 ft | 258 kts | 332° |
| 2026-05-06 13:00 | 40.68434 | 22.84527 | 6622 ft | 258 kts | 332° |
| 2026-05-06 13:00 | 40.70042 | 22.83490 | 6341 ft | 257 kts | 332° |
| 2026-05-06 13:00 | 40.71642 | 22.82457 | 6008 ft | 256 kts | 332° |
| 2026-05-06 13:01 | 40.73217 | 22.81444 | 5866 ft | 247 kts | 332° |
| 2026-05-06 13:01 | 40.74786 | 22.80641 | 5731 ft | 239 kts | 353° |
| 2026-05-06 13:01 | 40.75502 | 22.80657 | 5667 ft | 235 kts | 15° |
| 2026-05-06 13:01 | 40.76737 | 22.81686 | 5538 ft | 225 kts | 54° |
| 2026-05-06 13:02 | 40.77353 | 22.83516 | 5429 ft | 213 kts | 79° |
| 2026-05-06 13:02 | 40.77433 | 22.84128 | 5403 ft | 208 kts | 84° |
| 2026-05-06 13:02 | 40.77512 | 22.85357 | 5290 ft | 201 kts | 89° |
| 2026-05-06 13:02 | 40.77291 | 22.87148 | 4877 ft | 201 kts | 114° |
| 2026-05-06 13:03 | 40.76528 | 22.88635 | 4632 ft | 191 kts | 138° |
| 2026-05-06 13:03 | 40.75442 | 22.89561 | 4417 ft | 184 kts | 160° |
| 2026-05-06 13:03 | 40.74220 | 22.90000 | 4184 ft | 184 kts | 167° |
| 2026-05-06 13:03 | 40.72985 | 22.90392 | 3940 ft | 177 kts | 167° |
| 2026-05-06 13:04 | 40.71810 | 22.90767 | 3735 ft | 174 kts | 167° |
| 2026-05-06 13:04 | 40.70638 | 22.91141 | 3501 ft | 173 kts | 167° |
| 2026-05-06 13:04 | 40.69482 | 22.91511 | 3278 ft | 168 kts | 167° |
| 2026-05-06 13:04 | 40.68382 | 22.91862 | 3071 ft | 163 kts | 167° |
| 2026-05-06 13:05 | 40.67277 | 22.92214 | 2865 ft | 163 kts | 166° |
| 2026-05-06 13:05 | 40.66186 | 22.92563 | 2651 ft | 160 kts | 165° |
| 2026-05-06 13:05 | 40.65107 | 22.92908 | 2448 ft | 159 kts | 165° |
| 2026-05-06 13:05 | 40.64038 | 22.93250 | 2232 ft | 157 kts | 165° |
| 2026-05-06 13:06 | 40.62987 | 22.93585 | 2027 ft | 154 kts | 165° |
| 2026-05-06 13:06 | 40.61966 | 22.93911 | 1824 ft | 153 kts | 165° |
| 2026-05-06 13:06 | 40.61087 | 22.94191 | 1667 ft | 153 kts | 165° |
| 2026-05-06 13:06 | 40.60085 | 22.94510 | 1436 ft | 142 kts | 166° |
| 2026-05-06 13:07 | 40.59145 | 22.94810 | 1269 ft | 136 kts | 167° |
| 2026-05-06 13:07 | 40.58243 | 22.95097 | 1091 ft | 132 kts | 166° |
| 2026-05-06 13:07 | 40.57366 | 22.95377 | 928 ft | 130 kts | 165° |
| 2026-05-06 13:07 | 40.56485 | 22.95657 | 755 ft | 130 kts | 167° |
| 2026-05-06 13:08 | 40.55635 | 22.95933 | 618 ft | 127 kts | 168° |
| 2026-05-06 13:08 | 40.54766 | 22.96216 | 491 ft | 125 kts | 169° |
| 2026-05-06 13:08 | 40.53914 | 22.96478 | 307 ft | 130 kts | 169° |
| 2026-05-06 13:08 | 40.53035 | 22.96757 | 105 ft | 131 kts | 167° |
| 2026-05-06 13:09 | 40.52244 | 22.97006 | 28 ft | 112 kts | 167° |
| 2026-05-06 13:09 | 40.51648 | 22.97196 | 30 ft | 63 kts | 166° |
| 2026-05-06 13:09 | 40.51322 | 22.97299 | 32 ft | 41 kts | 166° |
| 2026-05-06 13:09 | 40.51060 | 22.97385 | 28 ft | 30 kts | 166° |
| 2026-05-06 13:10 | 40.50975 | 22.97430 | 28 ft | 19 kts | 143° |
| 2026-05-06 13:10 | 40.50958 | 22.97513 | 28 ft | 13 kts | 76° |
| 2026-05-06 13:10 | 40.51031 | 22.97581 | 29 ft | 15 kts | 355° |
| 2026-05-06 13:10 | 40.51149 | 22.97541 | 29 ft | 22 kts | 346° |
| 2026-05-06 13:11 | 40.51326 | 22.97484 | 29 ft | 31 kts | 347° |
| 2026-05-06 13:11 | 40.51553 | 22.97412 | 29 ft | 35 kts | 346° |
| 2026-05-06 13:11 | 40.51802 | 22.97332 | 29 ft | 38 kts | 346° |
| 2026-05-06 13:11 | 40.52070 | 22.97247 | 28 ft | 39 kts | 346° |
| 2026-05-06 13:12 | 40.52272 | 22.97184 | 28 ft | 22 kts | 347° |
| 2026-05-06 13:12 | 40.52372 | 22.97183 | 28 ft | 12 kts | 43° |
| 2026-05-06 13:12 | 40.52399 | 22.97303 | 29 ft | 16 kts | 77° |
| 2026-05-06 13:12 | 40.52352 | 22.97418 | 29 ft | 17 kts | 137° |
| 2026-05-06 13:13 | 40.52320 | 22.97459 | 29 ft | 0 kts | 136° |
| 2026-05-06 13:13 | 40.52310 | 22.97472 | 29 ft | 4 kts | 128° |
| 2026-05-06 13:13 | 40.52311 | 22.97489 | 29 ft | 0 kts | 84° |
| 2026-05-06 13:13 | 40.52320 | 22.97500 | 29 ft | 3 kts | 45° |
| 2026-05-06 13:14 | 40.52338 | 22.97524 | 29 ft | 3 kts | 43° |
| 2026-05-06 13:14 | 40.52348 | 22.97536 | 29 ft | 0 kts | 44° |